Time;durP1;ratioP1;P1;durP2;ratioP2;P2;SDS_P1;SDS_P2;PMS_P1;PMS_P2;Temp;Humidity;BMP_temperature;BMP_pressure;BME280_temperature;BME280_humidity;BME280_pressure;Samples;Min_cycle;Max_cycle;Signal;HPM_P1;HPM_P2
2022/06/29 00:05:15;;;;;;;2.05;1.10;;;18.00;99.90;;;;;;12360385;28;20185;-80
2022/06/29 00:11:16;;;;;;;1.98;1.00;;;17.90;99.90;;;;;;12369902;28;20426;-81
2022/06/29 00:17:18;;;;;;;3.13;1.25;;;17.90;99.90;;;;;;12359476;28;20458;-81
2022/06/29 00:23:20;;;;;;;2.15;0.90;;;17.90;99.90;;;;;;12381236;28;20121;-80
2022/06/29 00:29:22;;;;;;;2.38;0.90;;;17.80;99.90;;;;;;12376394;28;20458;-80
2022/06/29 00:35:24;;;;;;;3.92;0.90;;;17.80;99.90;;;;;;12362455;28;20049;-80
2022/06/29 00:41:25;;;;;;;1.63;0.82;;;17.70;99.90;;;;;;12383013;28;20051;-80
2022/06/29 00:47:27;;;;;;;2.30;1.25;;;17.80;99.90;;;;;;12378947;28;20137;-81
2022/06/29 00:53:35;;;;;;;1.52;0.90;;;17.80;99.90;;;;;;12368714;28;20081;-80
2022/06/29 00:59:43;;;;;;;2.47;0.98;;;17.80;99.90;;;;;;12352866;28;20054;-81
2022/06/29 01:05:44;;;;;;;6.43;1.10;;;17.70;99.90;;;;;;12380260;28;20043;-81
2022/06/29 01:11:49;;;;;;;2.47;0.98;;;17.60;99.90;;;;;;12367056;28;20159;-81
2022/06/29 01:17:51;;;;;;;2.78;1.30;;;17.50;99.90;;;;;;12358347;28;20517;-80
2022/06/29 01:23:52;;;;;;;5.22;1.02;;;17.30;99.90;;;;;;12366841;28;20529;-80
2022/06/29 01:29:55;;;;;;;6.68;1.10;;;17.20;99.90;;;;;;12376627;28;20053;-80
2022/06/29 01:35:57;;;;;;;3.08;0.98;;;17.20;99.90;;;;;;12373675;28;20485;-80
2022/06/29 01:41:58;;;;;;;2.95;1.30;;;17.10;99.90;;;;;;12383271;28;20050;-80
2022/06/29 01:48:00;;;;;;;6.03;1.25;;;17.00;99.90;;;;;;12356516;28;20152;-80
2022/06/29 01:54:03;;;;;;;9.40;1.30;;;17.00;99.90;;;;;;12349883;28;20138;-80
2022/06/29 02:00:05;;;;;;;2.95;0.95;;;16.90;99.90;;;;;;12346576;28;20137;-81
2022/06/29 02:06:07;;;;;;;2.92;1.08;;;16.80;99.90;;;;;;12362305;28;20055;-80
2022/06/29 02:12:09;;;;;;;2.67;1.45;;;16.60;99.90;;;;;;12367391;28;20138;-81
2022/06/29 02:18:11;;;;;;;2.42;0.90;;;16.60;99.90;;;;;;12374776;28;20418;-80
2022/06/29 02:24:13;;;;;;;4.40;1.10;;;16.70;99.90;;;;;;12361740;28;20568;-80
2022/06/29 02:30:16;;;;;;;4.13;1.30;;;16.80;99.90;;;;;;12372417;28;20062;-80
2022/06/29 02:36:18;;;;;;;6.78;1.05;;;16.90;99.90;;;;;;12345574;28;20120;-80
2022/06/29 02:42:20;;;;;;;4.97;1.30;;;16.90;99.90;;;;;;12366233;28;20101;-81
2022/06/29 02:48:21;;;;;;;5.45;1.30;;;16.80;99.90;;;;;;12401575;28;20208;-80
2022/06/29 02:54:23;;;;;;;1.95;1.05;;;16.80;99.90;;;;;;12371350;28;20410;-81
2022/06/29 03:00:25;;;;;;;3.38;1.35;;;16.80;99.90;;;;;;12360249;28;20054;-80
2022/06/29 03:06:27;;;;;;;5.57;1.38;;;16.80;99.90;;;;;;12375719;28;20449;-80
2022/06/29 03:12:29;;;;;;;4.43;1.10;;;16.80;99.90;;;;;;12355947;28;20046;-80
2022/06/29 03:18:31;;;;;;;3.70;1.17;;;16.70;99.90;;;;;;12370649;28;20055;-80
2022/06/29 03:24:33;;;;;;;2.60;1.20;;;16.60;99.90;;;;;;12373958;28;20181;-80
2022/06/29 03:30:34;;;;;;;2.17;1.10;;;16.60;99.90;;;;;;12361473;28;20133;-80
2022/06/29 03:36:36;;;;;;;2.78;1.20;;;16.60;99.90;;;;;;12361451;28;20050;-80
2022/06/29 03:42:38;;;;;;;2.35;1.13;;;16.50;99.90;;;;;;12359915;28;20069;-80
2022/06/29 03:48:40;;;;;;;4.30;1.40;;;16.60;99.90;;;;;;12377486;28;20103;-80
2022/06/29 03:54:41;;;;;;;5.57;1.58;;;16.60;99.90;;;;;;12378947;28;20124;-81
2022/06/29 04:00:43;;;;;;;4.57;1.30;;;16.50;99.90;;;;;;12384917;28;20049;-80
2022/06/29 04:06:45;;;;;;;4.20;1.35;;;16.50;99.90;;;;;;12359844;28;20418;-81
2022/06/29 04:12:47;;;;;;;6.18;1.40;;;16.50;99.90;;;;;;12388086;28;20047;-81
2022/06/29 04:18:49;;;;;;;4.07;1.40;;;16.50;99.90;;;;;;12379676;28;20407;-80
2022/06/29 04:24:51;;;;;;;5.10;1.45;;;16.50;99.90;;;;;;12387326;28;20050;-80
2022/06/29 04:30:52;;;;;;;5.55;1.30;;;16.60;99.90;;;;;;12366459;28;20066;-80
2022/06/29 04:36:54;;;;;;;4.18;1.20;;;16.70;99.90;;;;;;12355735;28;20134;-80
2022/06/29 04:42:56;;;;;;;3.40;1.30;;;16.70;99.90;;;;;;12366557;28;20050;-80
2022/06/29 04:49:00;;;;;;;2.38;1.00;;;16.80;99.90;;;;;;12349035;28;20372;-80
2022/06/29 04:55:02;;;;;;;5.07;1.33;;;16.90;99.90;;;;;;12367323;28;20133;-80
2022/06/29 05:01:05;;;;;;;5.10;1.52;;;16.90;99.90;;;;;;12371349;28;20054;-80
2022/06/29 05:07:07;;;;;;;4.63;1.60;;;17.00;99.90;;;;;;12343554;28;20077;-80
2022/06/29 05:13:09;;;;;;;5.60;2.00;;;17.10;99.90;;;;;;12375171;28;20046;-80
2022/06/29 05:19:11;;;;;;;3.10;1.38;;;17.10;99.90;;;;;;12360930;28;20508;-80
2022/06/29 05:25:12;;;;;;;5.22;1.30;;;17.10;99.90;;;;;;12367753;28;20557;-80
2022/06/29 05:31:14;;;;;;;4.18;1.08;;;17.20;99.90;;;;;;12352787;28;20042;-81
2022/06/29 05:37:17;;;;;;;3.33;1.27;;;17.60;99.90;;;;;;12370745;28;20510;-80
2022/06/29 05:43:19;;;;;;;3.60;1.30;;;17.70;99.90;;;;;;12358856;28;20117;-81
2022/06/29 05:49:20;;;;;;;3.83;1.45;;;17.80;99.90;;;;;;12369959;28;20063;-80
2022/06/29 05:55:22;;;;;;;6.22;1.38;;;17.90;99.90;;;;;;12370400;28;20129;-80
2022/06/29 06:01:24;;;;;;;4.32;1.25;;;18.00;99.90;;;;;;12390236;28;20131;-81
2022/06/29 06:07:26;;;;;;;2.95;1.30;;;18.00;99.90;;;;;;12401886;28;20537;-81
2022/06/29 06:13:28;;;;;;;3.78;1.50;;;18.10;99.90;;;;;;12355822;28;20058;-80
2022/06/29 06:19:30;;;;;;;4.32;1.40;;;18.30;99.90;;;;;;12373741;28;20202;-80
2022/06/29 06:25:32;;;;;;;3.63;1.40;;;18.50;99.90;;;;;;12377398;28;20042;-80
2022/06/29 06:31:34;;;;;;;10.18;2.33;;;18.90;99.90;;;;;;12366060;28;20510;-80
2022/06/29 06:37:36;;;;;;;3.50;1.25;;;19.30;99.90;;;;;;12375497;28;20682;-81
2022/06/29 06:43:38;;;;;;;3.60;1.30;;;19.70;99.90;;;;;;12374170;28;20086;-81
2022/06/29 06:49:40;;;;;;;5.35;1.60;;;19.90;99.90;;;;;;12371301;28;20137;-81
2022/06/29 06:55:42;;;;;;;3.60;1.48;;;20.00;99.90;;;;;;12374463;28;20074;-81
2022/06/29 07:01:43;;;;;;;4.70;1.45;;;20.20;99.90;;;;;;12367943;28;20465;-81
2022/06/29 07:07:50;;;;;;;3.47;1.50;;;20.40;99.90;;;;;;12371150;28;20551;-81
2022/06/29 07:13:52;;;;;;;2.97;1.35;;;20.70;99.90;;;;;;12376324;28;20078;-81
2022/06/29 07:19:54;;;;;;;5.30;1.83;;;20.80;99.90;;;;;;12386662;28;20054;-80
2022/06/29 07:25:56;;;;;;;3.05;1.70;;;21.20;99.90;;;;;;12386596;28;20124;-81
2022/06/29 07:31:58;;;;;;;3.75;1.65;;;21.30;99.90;;;;;;12352527;28;20073;-81
2022/06/29 07:38:00;;;;;;;3.28;1.90;;;21.40;99.90;;;;;;12359440;28;20407;-81
2022/06/29 07:44:04;;;;;;;3.95;1.95;;;21.50;99.90;;;;;;12358550;28;20384;-81
2022/06/29 07:50:07;;;;;;;7.25;2.15;;;21.60;99.90;;;;;;12369996;28;20705;-81
2022/06/29 07:56:09;;;;;;;6.50;1.95;;;21.80;99.90;;;;;;12376079;28;20089;-81
2022/06/29 08:02:10;;;;;;;5.25;2.58;;;21.70;99.90;;;;;;12366482;28;20129;-82
2022/06/29 08:08:12;;;;;;;4.85;2.75;;;21.90;99.90;;;;;;12384342;28;20119;-81
2022/06/29 08:14:14;;;;;;;4.00;2.55;;;22.30;99.90;;;;;;12385926;28;20062;-82
2022/06/29 08:20:16;;;;;;;3.80;2.85;;;22.60;99.90;;;;;;12407812;28;20054;-82
2022/06/29 08:26:18;;;;;;;6.13;2.60;;;22.80;99.90;;;;;;12373566;28;20145;-81
2022/06/29 08:32:41;;;;;;;4.60;2.95;;;23.10;99.90;;;;;;12364105;28;20050;-82
2022/06/29 08:38:44;;;;;;;3.58;2.80;;;23.20;99.90;;;;;;12347972;28;20054;-83
2022/06/29 08:44:49;;;;;;;4.80;2.80;;;23.50;99.90;;;;;;12366796;28;20050;-81
2022/06/29 08:50:52;;;;;;;4.97;2.72;;;23.70;99.90;;;;;;12365632;28;20137;-82
2022/06/29 08:56:57;;;;;;;4.72;3.22;;;23.80;99.90;;;;;;12374299;28;20097;-83
2022/06/29 09:03:01;;;;;;;4.78;3.20;;;23.90;99.90;;;;;;12358595;28;20042;-83
2022/06/29 09:09:02;;;;;;;;;;;24.00;99.90;;;;;;12364644;28;20066;-82
2022/06/29 09:15:07;;;;;;;3.00;2.60;;;24.00;99.90;;;;;;12376005;28;19968;-82
2022/06/29 09:21:09;;;;;;;5.78;2.58;;;24.10;99.90;;;;;;12387252;28;20057;-83
2022/06/29 09:27:12;;;;;;;5.07;2.88;;;24.00;99.90;;;;;;12363478;28;20066;-83
2022/06/29 09:33:14;;;;;;;5.05;2.88;;;24.00;99.90;;;;;;12385000;28;20047;-82
2022/06/29 09:39:31;;;;;;;7.83;3.13;;;24.20;99.90;;;;;;12372102;28;20538;-82
2022/06/29 09:45:33;;;;;;;3.65;2.80;;;24.00;99.90;;;;;;12373197;28;20043;-83
2022/06/29 09:51:36;;;;;;;4.05;2.55;;;24.00;99.90;;;;;;12377549;28;20073;-82
2022/06/29 09:57:40;;;;;;;5.00;2.78;;;23.90;99.90;;;;;;12376565;28;22100;-83
2022/06/29 10:03:42;;;;;;;3.00;2.53;;;23.80;99.90;;;;;;12373713;28;20075;-82
2022/06/29 10:09:43;;;;;;;4.82;2.88;;;23.90;99.90;;;;;;12383310;28;20082;-83
2022/06/29 10:16:11;;;;;;;3.88;2.75;;;23.90;99.90;;;;;;12353692;28;20054;-83
2022/06/29 10:22:13;;;;;;;4.82;2.72;;;24.00;99.90;;;;;;12376395;28;20478;-83
2022/06/29 10:28:20;;;;;;;3.05;2.47;;;23.90;99.90;;;;;;12370668;28;20047;-83
2022/06/29 10:34:31;;;;;;;3.67;2.40;;;23.90;99.90;;;;;;12379094;28;20039;-81
2022/06/29 10:40:33;;;;;;;5.63;2.75;;;24.20;99.90;;;;;;12360885;28;20161;-82
2022/06/29 10:46:54;;;;;;;3.92;2.35;;;24.60;99.90;;;;;;12382084;28;20522;-83
2022/06/29 10:53:04;;;;;;;3.03;2.50;;;24.70;99.90;;;;;;12375001;28;20650;-83
2022/06/29 10:59:35;;;;;;;3.40;2.38;;;24.70;99.90;;;;;;12380053;28;20096;-83
2022/06/29 11:12:01;;;;;;;5.25;2.05;;;24.60;99.90;;;;;;12369210;28;20129;-83
2022/06/29 11:12:02;;;;;;;5.75;2.30;;;24.60;99.90;;;;;;12376849;28;20138;-83
2022/06/29 11:18:04;;;;;;;5.50;2.35;;;24.50;99.90;;;;;;12376889;28;20148;-83
2022/06/29 11:24:06;;;;;;;3.75;2.40;;;24.30;99.90;;;;;;12372782;28;20101;-82
2022/06/29 11:30:10;;;;;;;3.65;2.53;;;24.40;99.90;;;;;;12377315;28;20076;-82
2022/06/29 11:36:18;;;;;;;3.38;2.50;;;24.50;99.90;;;;;;12349107;28;20137;-83
2022/06/29 11:55:39;;;;;;;3.90;2.35;;;24.90;99.90;;;;;;12371631;28;20074;-83
2022/06/29 12:01:52;;;;;;;6.10;2.60;;;24.80;99.90;;;;;;12370512;28;20043;-83
2022/06/29 12:07:54;;;;;;;3.30;2.70;;;24.90;99.90;;;;;;12360745;28;20074;-83
2022/06/29 12:13:56;;;;;;;2.90;2.25;;;24.70;99.90;;;;;;12380367;28;20097;-84
2022/06/29 12:19:58;;;;;;;5.72;2.45;;;24.80;99.90;;;;;;12338044;28;20149;-82
2022/06/29 12:26:12;;;;;;;;;;;24.70;99.90;;;;;;12331932;28;20047;-82
2022/06/29 12:32:13;;;;;;;5.00;2.20;;;24.70;99.90;;;;;;12316321;28;19973;-82
2022/06/29 12:38:15;;;;;;;4.90;2.60;;;24.80;99.90;;;;;;12309704;28;20169;-83
2022/06/29 12:44:17;;;;;;;3.80;2.53;;;25.00;99.90;;;;;;12332600;28;20081;-83
2022/06/29 12:50:20;;;;;;;4.88;2.47;;;25.50;99.90;;;;;;12317412;28;20050;-83
2022/06/29 12:56:22;;;;;;;2.53;2.30;;;25.90;99.90;;;;;;12326783;28;20499;-83
2022/06/29 13:02:26;;;;;;;5.57;2.50;;;26.80;99.90;;;;;;12327006;28;20070;-83
2022/06/29 13:08:28;;;;;;;2.77;2.27;;;27.10;99.90;;;;;;12315061;28;20093;-82
2022/06/29 13:14:30;;;;;;;4.20;2.57;;;27.00;99.90;;;;;;12318690;28;20042;-83
2022/06/29 13:20:32;;;;;;;3.85;2.20;;;26.50;99.90;;;;;;12357354;28;20126;-82
2022/06/29 13:26:34;;;;;;;3.93;2.67;;;26.30;99.90;;;;;;12372903;28;20476;-84
2022/06/29 13:32:36;;;;;;;5.05;2.33;;;26.70;99.90;;;;;;12353778;28;20046;-82
2022/06/29 13:38:38;;;;;;;3.58;2.10;;;26.60;99.90;;;;;;12352646;28;20053;-83
2022/06/29 13:44:40;;;;;;;3.78;2.05;;;26.00;99.90;;;;;;12361241;28;20050;-82
2022/06/29 13:50:44;;;;;;;4.40;2.60;;;25.50;99.90;;;;;;12354300;28;20144;-82
2022/06/29 13:56:46;;;;;;;5.32;2.70;;;25.20;99.90;;;;;;12355534;28;20058;-83
2022/06/29 14:02:48;;;;;;;6.97;3.13;;;25.00;99.90;;;;;;12369499;28;20083;-83
2022/06/29 14:08:49;;;;;;;5.28;3.08;;;24.90;99.90;;;;;;12376090;28;20042;-82
2022/06/29 14:15:11;;;;;;;3.80;2.78;;;24.70;99.90;;;;;;12366058;28;20487;-82
2022/06/29 14:21:13;;;;;;;4.47;2.72;;;24.60;99.90;;;;;;12358014;28;20104;-83
2022/06/29 14:27:15;;;;;;;5.37;3.67;;;24.60;99.90;;;;;;12370288;28;20058;-82
2022/06/29 14:33:17;;;;;;;4.05;2.80;;;24.50;99.90;;;;;;12352721;28;20050;-82
2022/06/29 14:39:19;;;;;;;5.05;2.95;;;24.60;99.90;;;;;;12370856;28;20137;-83
2022/06/29 14:45:21;;;;;;;4.38;2.88;;;24.80;99.90;;;;;;12374545;28;20073;-82
2022/06/29 14:51:22;;;;;;;3.72;3.08;;;25.20;99.90;;;;;;12358134;28;20059;-83
2022/06/29 14:57:24;;;;;;;7.05;2.70;;;25.40;99.90;;;;;;12365160;28;20051;-83
2022/06/29 15:03:28;;;;;;;5.25;2.70;;;25.50;99.90;;;;;;12381615;28;20054;-83
2022/06/29 15:09:33;;;;;;;4.05;2.85;;;25.50;99.90;;;;;;12377700;28;20071;-83
2022/06/29 15:15:36;;;;;;;5.32;2.85;;;25.50;99.90;;;;;;12357443;28;20046;-83
2022/06/29 15:21:38;;;;;;;4.07;2.90;;;25.60;99.90;;;;;;12374472;28;20105;-83
2022/06/29 15:27:40;;;;;;;5.90;3.13;;;25.60;99.90;;;;;;12407273;28;20062;-83
2022/06/29 15:40:05;;;;;;;4.10;2.40;;;25.60;99.90;;;;;;12366010;28;20047;-82
2022/06/29 15:46:08;;;;;;;3.45;2.53;;;25.60;99.90;;;;;;12354399;28;20100;-82
2022/06/29 15:52:11;;;;;;;7.15;2.75;;;25.30;99.90;;;;;;12377571;28;20489;-82
2022/06/29 15:58:12;;;;;;;6.82;2.25;;;25.20;99.90;;;;;;12373630;28;20054;-83
2022/06/29 16:04:14;;;;;;;4.03;2.05;;;25.20;99.90;;;;;;12355074;28;20043;-82
2022/06/29 16:10:16;;;;;;;2.75;1.70;;;25.20;99.90;;;;;;12359769;28;20046;-82
2022/06/29 16:16:18;;;;;;;3.10;1.98;;;25.10;99.90;;;;;;12354889;28;20059;-82
2022/06/29 16:22:22;;;;;;;5.47;1.92;;;25.00;99.90;;;;;;12381451;28;20046;-82
2022/06/29 16:28:25;;;;;;;5.15;2.00;;;25.00;99.90;;;;;;12362550;28;20053;-82
2022/06/29 16:34:27;;;;;;;3.92;1.85;;;25.00;99.90;;;;;;12372092;28;20096;-83
2022/06/29 16:40:29;;;;;;;3.40;1.90;;;25.00;99.90;;;;;;12371799;28;20173;-82
2022/06/29 16:46:31;;;;;;;3.72;1.85;;;25.10;99.90;;;;;;12359246;28;20080;-82
2022/06/29 16:52:33;;;;;;;3.72;1.75;;;25.00;99.90;;;;;;12371691;28;20042;-82
2022/06/29 16:58:35;;;;;;;3.15;1.70;;;25.00;99.90;;;;;;12359521;28;20133;-82
2022/06/29 17:04:37;;;;;;;2.92;2.00;;;25.00;99.90;;;;;;12370256;28;20100;-83
2022/06/29 17:10:39;;;;;;;4.65;1.77;;;25.00;99.90;;;;;;12365632;28;20288;-82
2022/06/29 17:16:41;;;;;;;3.20;1.90;;;24.70;99.90;;;;;;12370370;28;20070;-82
2022/06/29 17:22:42;;;;;;;3.38;1.92;;;24.50;99.90;;;;;;12382269;28;20034;-82
2022/06/29 17:28:44;;;;;;;4.13;1.70;;;24.30;99.90;;;;;;12365753;28;20128;-82
2022/06/29 17:34:50;;;;;;;6.85;2.00;;;24.40;99.90;;;;;;12369602;28;20096;-82
2022/06/29 17:40:52;;;;;;;2.53;1.60;;;24.40;99.90;;;;;;12363153;28;20046;-82
2022/06/29 17:46:54;;;;;;;5.95;1.70;;;24.40;99.90;;;;;;12376946;28;20055;-82
2022/06/29 17:52:56;;;;;;;5.23;1.77;;;24.10;99.90;;;;;;12371327;28;20047;-82
2022/06/29 17:58:58;;;;;;;5.03;2.13;;;23.70;99.90;;;;;;12366168;28;20297;-81
2022/06/29 18:05:00;;;;;;;3.40;1.80;;;23.60;99.90;;;;;;12372641;28;20046;-82
2022/06/29 18:11:02;;;;;;;2.55;1.50;;;23.50;99.90;;;;;;12356805;28;20239;-82
2022/06/29 18:17:23;;;;;;;3.10;1.80;;;23.40;99.90;;;;;;12366729;28;20397;-82
2022/06/29 18:23:26;;;;;;;2.63;1.40;;;23.30;99.90;;;;;;12380847;28;20092;-82
2022/06/29 18:29:28;;;;;;;2.35;1.48;;;23.20;99.90;;;;;;12378904;28;20138;-82
2022/06/29 18:35:30;;;;;;;5.88;2.05;;;23.10;99.90;;;;;;12365661;28;20115;-82
2022/06/29 18:41:32;;;;;;;6.45;2.28;;;23.00;99.90;;;;;;12354438;28;20050;-82
2022/06/29 18:47:34;;;;;;;3.55;2.20;;;23.00;99.90;;;;;;12363856;28;20042;-81
2022/06/29 18:53:36;;;;;;;3.55;1.92;;;22.80;99.90;;;;;;12363842;28;20396;-82
2022/06/29 18:59:38;;;;;;;3.63;2.08;;;22.80;99.90;;;;;;12376021;28;20119;-81
2022/06/29 19:05:40;;;;;;;3.85;2.22;;;22.70;99.90;;;;;;12380159;28;20047;-83
2022/06/29 19:11:51;;;;;;;5.40;2.22;;;22.60;99.90;;;;;;12378687;28;20487;-81
2022/06/29 19:17:53;;;;;;;2.80;2.00;;;22.50;99.90;;;;;;12356621;28;20064;-81
2022/06/29 19:23:54;;;;;;;4.15;2.13;;;22.40;99.90;;;;;;12378571;28;20046;-81
2022/06/29 19:29:56;;;;;;;4.65;2.20;;;22.30;99.90;;;;;;12362828;28;20128;-82
2022/06/29 19:36:01;;;;;;;4.07;2.00;;;22.20;99.90;;;;;;12360594;28;20590;-82
2022/06/29 19:42:03;;;;;;;8.38;2.53;;;22.10;99.90;;;;;;12367577;28;20399;-81
2022/06/29 19:48:05;;;;;;;4.37;1.97;;;22.00;99.90;;;;;;12360200;28;20046;-81
2022/06/29 19:54:07;;;;;;;4.28;2.33;;;21.90;99.90;;;;;;12376174;28;20298;-81
2022/06/29 20:00:11;;;;;;;4.60;2.88;;;21.80;99.90;;;;;;12382586;28;20484;-81
2022/06/29 20:06:14;;;;;;;3.97;2.50;;;21.70;99.90;;;;;;12363300;28;20043;-81
2022/06/29 20:12:16;;;;;;;3.30;1.98;;;21.70;99.90;;;;;;12351865;28;20046;-82
2022/06/29 20:18:18;;;;;;;4.15;2.60;;;21.50;99.90;;;;;;12358609;28;20061;-81
2022/06/29 20:24:20;;;;;;;3.05;2.10;;;21.50;99.90;;;;;;12360735;28;20046;-81
2022/06/29 20:30:23;;;;;;;3.87;2.23;;;21.40;99.90;;;;;;12355563;28;20119;-81
2022/06/29 20:36:25;;;;;;;3.70;2.42;;;21.30;99.90;;;;;;12369011;28;20059;-82
2022/06/29 20:42:26;;;;;;;5.32;2.03;;;21.30;99.90;;;;;;12358763;28;20133;-81
2022/06/29 20:48:28;;;;;;;4.55;1.98;;;21.30;99.90;;;;;;12356177;28;20458;-81
2022/06/29 20:54:30;;;;;;;4.63;1.98;;;21.20;99.90;;;;;;12361839;28;20047;-81
2022/06/29 21:00:32;;;;;;;4.95;2.30;;;21.20;99.90;;;;;;12360100;28;20054;-82
2022/06/29 21:06:34;;;;;;;7.47;3.30;;;21.00;99.90;;;;;;12375577;28;20129;-81
2022/06/29 21:12:36;;;;;;;3.67;1.98;;;21.10;99.90;;;;;;12358315;28;20047;-82
2022/06/29 21:18:38;;;;;;;7.03;1.90;;;21.00;99.90;;;;;;12394814;28;20102;-82
2022/06/29 21:24:40;;;;;;;4.60;1.77;;;20.80;99.90;;;;;;12369165;28;20034;-81
2022/06/29 21:30:42;;;;;;;4.35;1.70;;;20.80;99.90;;;;;;12349931;28;20120;-82
2022/06/29 21:36:44;;;;;;;4.25;1.60;;;20.80;99.90;;;;;;12342967;28;20058;-82
2022/06/29 21:42:46;;;;;;;5.63;1.88;;;20.70;99.90;;;;;;12370315;28;20487;-81
2022/06/29 21:55:08;;;;;;;7.38;1.92;;;20.70;99.90;;;;;;12363903;28;20050;-81
2022/06/29 22:01:10;;;;;;;3.33;1.70;;;20.80;99.90;;;;;;12370149;28;20112;-82
2022/06/29 22:07:13;;;;;;;2.00;1.45;;;20.80;99.90;;;;;;12355339;28;20054;-81
2022/06/29 22:13:15;;;;;;;3.00;1.77;;;20.80;99.90;;;;;;12350255;28;20050;-81
2022/06/29 22:19:17;;;;;;;3.25;1.70;;;20.80;99.90;;;;;;12357301;28;20070;-82
2022/06/29 22:25:22;;;;;;;4.47;1.63;;;20.70;99.90;;;;;;12382501;28;20039;-81
2022/06/29 22:31:24;;;;;;;2.75;1.80;;;20.70;99.90;;;;;;12359466;28;20050;-82
2022/06/29 22:37:26;;;;;;;3.70;1.90;;;20.70;99.90;;;;;;12371443;28;20054;-81
2022/06/29 22:43:28;;;;;;;3.78;1.90;;;20.70;99.90;;;;;;12376644;28;20125;-81
2022/06/29 22:49:29;;;;;;;3.55;1.70;;;20.60;99.90;;;;;;12362143;28;20057;-82
2022/06/29 22:55:31;;;;;;;3.65;1.70;;;20.50;99.90;;;;;;12377570;28;20092;-81
2022/06/29 23:01:53;;;;;;;3.58;1.50;;;20.30;99.90;;;;;;12361321;28;20418;-81
2022/06/29 23:07:55;;;;;;;2.85;1.40;;;20.20;99.90;;;;;;12377932;28;20074;-81
2022/06/29 23:13:57;;;;;;;4.25;1.92;;;20.00;99.90;;;;;;12357226;28;20051;-81
2022/06/29 23:20:05;;;;;;;5.25;1.85;;;20.10;99.90;;;;;;12372771;28;20063;-81
2022/06/29 23:26:07;;;;;;;2.90;1.77;;;20.20;99.90;;;;;;12363905;28;20047;-82
2022/06/29 23:32:09;;;;;;;2.67;1.55;;;20.10;99.90;;;;;;12380770;28;20189;-82
2022/06/29 23:38:11;;;;;;;3.50;1.75;;;20.00;99.90;;;;;;12378534;28;20502;-81
2022/06/29 23:44:18;;;;;;;3.58;1.92;;;20.00;99.90;;;;;;12369552;28;20521;-81
2022/06/29 23:50:21;;;;;;;2.17;1.67;;;19.90;99.90;;;;;;12356227;28;20057;-82
2022/06/29 23:56:23;;;;;;;2.70;1.45;;;19.80;99.90;;;;;;12379266;28;20399;-82
